sensor_id;sensor_type;location;lat;lon;timestamp;P1;durP1;ratioP1;P2;durP2;ratioP2
79755;SDS011;69239;50.678;12.280;2023-06-22T05:30:00;12.88;;;9.80;;
79755;SDS011;69239;50.678;12.280;2023-06-22T05:32:26;13.15;;;9.23;;
79755;SDS011;69239;50.678;12.280;2023-06-22T05:34:51;11.48;;;9.20;;
79755;SDS011;69239;50.678;12.280;2023-06-22T05:37:16;13.38;;;8.15;;
79755;SDS011;69239;50.678;12.280;2023-06-22T05:39:42;11.93;;;8.60;;
79755;SDS011;69239;50.678;12.280;2023-06-22T05:42:08;15.57;;;9.50;;
79755;SDS011;69239;50.678;12.280;2023-06-22T05:44:33;15.35;;;9.32;;
79755;SDS011;69239;50.678;12.280;2023-06-22T05:46:59;14.57;;;8.90;;
79755;SDS011;69239;50.678;12.280;2023-06-22T05:49:24;13.27;;;9.35;;
79755;SDS011;69239;50.678;12.280;2023-06-22T05:51:54;11.73;;;8.57;;
79755;SDS011;69239;50.678;12.280;2023-06-22T05:54:20;12.98;;;8.95;;
79755;SDS011;69239;50.678;12.280;2023-06-22T05:56:46;12.00;;;8.57;;
79755;SDS011;69239;50.678;12.280;2023-06-22T05:59:11;14.82;;;9.15;;
79755;SDS011;69239;50.678;12.280;2023-06-22T06:01:37;13.75;;;9.15;;
79755;SDS011;69239;50.678;12.280;2023-06-22T06:04:03;13.68;;;8.73;;
79755;SDS011;69239;50.678;12.280;2023-06-22T06:06:35;11.15;;;7.85;;
79755;SDS011;69239;50.678;12.280;2023-06-22T06:09:04;11.82;;;9.10;;
79755;SDS011;69239;50.678;12.280;2023-06-22T06:11:30;9.18;;;8.05;;
79755;SDS011;69239;50.678;12.280;2023-06-22T06:13:56;11.63;;;8.90;;
79755;SDS011;69239;50.678;12.280;2023-06-22T06:16:21;11.23;;;8.88;;
79755;SDS011;69239;50.678;12.280;2023-06-22T06:18:47;9.85;;;8.52;;
79755;SDS011;69239;50.678;12.280;2023-06-22T06:21:15;12.43;;;8.27;;
79755;SDS011;69239;50.678;12.280;2023-06-22T06:23:41;12.07;;;8.95;;
79755;SDS011;69239;50.678;12.280;2023-06-22T06:26:07;10.77;;;8.75;;
79755;SDS011;69239;50.678;12.280;2023-06-22T06:28:32;14.25;;;9.13;;
79755;SDS011;69239;50.678;12.280;2023-06-22T06:30:58;12.20;;;8.25;;
79755;SDS011;69239;50.678;12.280;2023-06-22T06:33:24;10.45;;;7.75;;
79755;SDS011;69239;50.678;12.280;2023-06-22T06:35:50;15.35;;;9.27;;
79755;SDS011;69239;50.678;12.280;2023-06-22T06:38:15;11.27;;;8.00;;
79755;SDS011;69239;50.678;12.280;2023-06-22T06:40:41;13.32;;;8.00;;
79755;SDS011;69239;50.678;12.280;2023-06-22T06:43:06;12.00;;;8.40;;
79755;SDS011;69239;50.678;12.280;2023-06-22T06:45:32;10.82;;;7.28;;
79755;SDS011;69239;50.678;12.280;2023-06-22T06:47:59;12.10;;;8.15;;
79755;SDS011;69239;50.678;12.280;2023-06-22T06:50:25;9.43;;;7.28;;
79755;SDS011;69239;50.678;12.280;2023-06-22T06:52:50;11.23;;;7.60;;
79755;SDS011;69239;50.678;12.280;2023-06-22T06:55:16;11.13;;;7.82;;
79755;SDS011;69239;50.678;12.280;2023-06-22T06:57:41;12.35;;;9.23;;
79755;SDS011;69239;50.678;12.280;2023-06-22T07:00:08;12.43;;;7.70;;
79755;SDS011;69239;50.678;12.280;2023-06-22T07:02:38;11.45;;;7.47;;
79755;SDS011;69239;50.678;12.280;2023-06-22T07:05:05;12.13;;;7.47;;
79755;SDS011;69239;50.678;12.280;2023-06-22T07:07:31;9.55;;;7.53;;
79755;SDS011;69239;50.678;12.280;2023-06-22T07:09:57;13.65;;;7.53;;
79755;SDS011;69239;50.678;12.280;2023-06-22T07:12:22;13.40;;;7.60;;
79755;SDS011;69239;50.678;12.280;2023-06-22T07:14:48;15.07;;;7.75;;
79755;SDS011;69239;50.678;12.280;2023-06-22T07:17:13;8.77;;;7.20;;
79755;SDS011;69239;50.678;12.280;2023-06-22T07:19:38;8.65;;;7.38;;
79755;SDS011;69239;50.678;12.280;2023-06-22T07:22:04;9.30;;;7.60;;
79755;SDS011;69239;50.678;12.280;2023-06-22T07:24:30;13.85;;;7.38;;
79755;SDS011;69239;50.678;12.280;2023-06-22T07:26:55;15.93;;;7.93;;
79755;SDS011;69239;50.678;12.280;2023-06-22T07:29:24;14.00;;;7.28;;
79755;SDS011;69239;50.678;12.280;2023-06-22T07:31:50;19.45;;;8.02;;
79755;SDS011;69239;50.678;12.280;2023-06-22T07:34:21;8.75;;;7.28;;
79755;SDS011;69239;50.678;12.280;2023-06-22T07:36:47;12.40;;;7.63;;
79755;SDS011;69239;50.678;12.280;2023-06-22T07:39:12;13.52;;;7.82;;
79755;SDS011;69239;50.678;12.280;2023-06-22T07:41:38;10.48;;;7.57;;
79755;SDS011;69239;50.678;12.280;2023-06-22T07:44:04;11.25;;;7.80;;
79755;SDS011;69239;50.678;12.280;2023-06-22T07:46:31;12.52;;;7.85;;
79755;SDS011;69239;50.678;12.280;2023-06-22T07:48:57;10.82;;;7.57;;
79755;SDS011;69239;50.678;12.280;2023-06-22T07:51:22;12.77;;;7.75;;
79755;SDS011;69239;50.678;12.280;2023-06-22T07:53:48;12.30;;;7.47;;
79755;SDS011;69239;50.678;12.280;2023-06-22T07:56:14;12.88;;;7.10;;
79755;SDS011;69239;50.678;12.280;2023-06-22T07:58:44;13.90;;;7.40;;
79755;SDS011;69239;50.678;12.280;2023-06-22T08:01:10;12.85;;;7.53;;
79755;SDS011;69239;50.678;12.280;2023-06-22T08:03:36;10.82;;;7.82;;
79755;SDS011;69239;50.678;12.280;2023-06-22T08:06:01;13.48;;;7.57;;
79755;SDS011;69239;50.678;12.280;2023-06-22T08:08:27;8.45;;;7.07;;
79755;SDS011;69239;50.678;12.280;2023-06-22T08:10:52;10.80;;;7.53;;
79755;SDS011;69239;50.678;12.280;2023-06-22T08:13:18;9.45;;;7.20;;
79755;SDS011;69239;50.678;12.280;2023-06-22T08:15:44;9.55;;;7.53;;
79755;SDS011;69239;50.678;12.280;2023-06-22T08:18:09;8.63;;;7.03;;
79755;SDS011;69239;50.678;12.280;2023-06-22T08:20:35;12.10;;;7.53;;
79755;SDS011;69239;50.678;12.280;2023-06-22T08:23:00;9.82;;;7.22;;
79755;SDS011;69239;50.678;12.280;2023-06-22T08:25:30;9.45;;;7.63;;
79755;SDS011;69239;50.678;12.280;2023-06-22T08:27:56;8.93;;;7.25;;
79755;SDS011;69239;50.678;12.280;2023-06-22T08:30:21;8.30;;;6.97;;
79755;SDS011;69239;50.678;12.280;2023-06-22T08:32:47;10.65;;;7.05;;
79755;SDS011;69239;50.678;12.280;2023-06-22T08:35:12;9.77;;;6.75;;
79755;SDS011;69239;50.678;12.280;2023-06-22T08:37:38;13.30;;;6.82;;
79755;SDS011;69239;50.678;12.280;2023-06-22T08:40:04;14.10;;;7.35;;
79755;SDS011;69239;50.678;12.280;2023-06-22T08:42:33;10.05;;;6.50;;
79755;SDS011;69239;50.678;12.280;2023-06-22T08:44:59;16.65;;;6.40;;
79755;SDS011;69239;50.678;12.280;2023-06-22T08:47:28;9.48;;;6.97;;
79755;SDS011;69239;50.678;12.280;2023-06-22T08:49:54;16.65;;;8.13;;
79755;SDS011;69239;50.678;12.280;2023-06-22T08:52:20;9.65;;;6.93;;
79755;SDS011;69239;50.678;12.280;2023-06-22T08:54:48;9.65;;;7.00;;
79755;SDS011;69239;50.678;12.280;2023-06-22T08:57:14;10.20;;;7.07;;
79755;SDS011;69239;50.678;12.280;2023-06-22T08:59:41;12.25;;;8.02;;
79755;SDS011;69239;50.678;12.280;2023-06-22T09:02:07;8.27;;;6.90;;
79755;SDS011;69239;50.678;12.280;2023-06-22T09:04:32;10.63;;;7.78;;
79755;SDS011;69239;50.678;12.280;2023-06-22T09:07:00;18.63;;;7.18;;
79755;SDS011;69239;50.678;12.280;2023-06-22T09:09:26;12.45;;;6.65;;
79755;SDS011;69239;50.678;12.280;2023-06-22T09:11:51;12.10;;;6.85;;
79755;SDS011;69239;50.678;12.280;2023-06-22T09:14:16;7.97;;;6.43;;
79755;SDS011;69239;50.678;12.280;2023-06-22T09:16:42;23.50;;;6.85;;
79755;SDS011;69239;50.678;12.280;2023-06-22T09:19:07;11.45;;;6.65;;
79755;SDS011;69239;50.678;12.280;2023-06-22T09:21:32;8.82;;;6.05;;
79755;SDS011;69239;50.678;12.280;2023-06-22T09:24:00;12.70;;;6.43;;
79755;SDS011;69239;50.678;12.280;2023-06-22T09:26:26;10.02;;;6.50;;
79755;SDS011;69239;50.678;12.280;2023-06-22T09:28:52;16.60;;;6.40;;
79755;SDS011;69239;50.678;12.280;2023-06-22T09:31:17;9.77;;;6.18;;
79755;SDS011;69239;50.678;12.280;2023-06-22T09:33:46;12.32;;;6.15;;
79755;SDS011;69239;50.678;12.280;2023-06-22T09:36:12;6.68;;;6.05;;
79755;SDS011;69239;50.678;12.280;2023-06-22T09:38:37;10.38;;;6.78;;
79755;SDS011;69239;50.678;12.280;2023-06-22T09:41:03;7.28;;;5.95;;
79755;SDS011;69239;50.678;12.280;2023-06-22T09:43:31;14.85;;;5.93;;
79755;SDS011;69239;50.678;12.280;2023-06-22T09:45:57;9.93;;;6.60;;
79755;SDS011;69239;50.678;12.280;2023-06-22T09:48:22;13.48;;;6.50;;
79755;SDS011;69239;50.678;12.280;2023-06-22T09:50:48;17.60;;;6.07;;
79755;SDS011;69239;50.678;12.280;2023-06-22T09:53:13;13.40;;;6.65;;
79755;SDS011;69239;50.678;12.280;2023-06-22T09:55:39;6.93;;;6.00;;
79755;SDS011;69239;50.678;12.280;2023-06-22T09:58:04;13.77;;;6.30;;
79755;SDS011;69239;50.678;12.280;2023-06-22T10:00:29;15.27;;;7.13;;
79755;SDS011;69239;50.678;12.280;2023-06-22T10:02:55;20.23;;;6.80;;
79755;SDS011;69239;50.678;12.280;2023-06-22T10:05:21;13.00;;;6.82;;
79755;SDS011;69239;50.678;12.280;2023-06-22T10:07:47;9.73;;;7.45;;
79755;SDS011;69239;50.678;12.280;2023-06-22T10:10:13;12.80;;;6.40;;
79755;SDS011;69239;50.678;12.280;2023-06-22T10:12:43;6.65;;;6.00;;
79755;SDS011;69239;50.678;12.280;2023-06-22T10:15:11;8.48;;;5.80;;
79755;SDS011;69239;50.678;12.280;2023-06-22T10:17:37;13.32;;;6.63;;
79755;SDS011;69239;50.678;12.280;2023-06-22T10:20:02;8.32;;;6.05;;
79755;SDS011;69239;50.678;12.280;2023-06-22T10:22:37;13.10;;;6.22;;
79755;SDS011;69239;50.678;12.280;2023-06-22T10:25:03;8.02;;;5.85;;
79755;SDS011;69239;50.678;12.280;2023-06-22T10:27:29;9.60;;;5.95;;
79755;SDS011;69239;50.678;12.280;2023-06-22T10:29:56;8.55;;;6.38;;
79755;SDS011;69239;50.678;12.280;2023-06-22T10:32:22;9.15;;;5.70;;
79755;SDS011;69239;50.678;12.280;2023-06-22T10:34:47;11.30;;;6.10;;
79755;SDS011;69239;50.678;12.280;2023-06-22T10:37:12;7.10;;;6.35;;
79755;SDS011;69239;50.678;12.280;2023-06-22T10:39:38;7.13;;;5.97;;
79755;SDS011;69239;50.678;12.280;2023-06-22T10:42:03;8.55;;;6.18;;
79755;SDS011;69239;50.678;12.280;2023-06-22T10:44:30;7.35;;;5.80;;
79755;SDS011;69239;50.678;12.280;2023-06-22T10:46:55;6.60;;;5.90;;
79755;SDS011;69239;50.678;12.280;2023-06-22T10:49:20;6.03;;;5.25;;
79755;SDS011;69239;50.678;12.280;2023-06-22T10:51:46;6.68;;;5.50;;
79755;SDS011;69239;50.678;12.280;2023-06-22T10:54:11;5.63;;;5.07;;
79755;SDS011;69239;50.678;12.280;2023-06-22T10:56:38;8.63;;;5.28;;
79755;SDS011;69239;50.678;12.280;2023-06-22T10:59:04;8.80;;;5.53;;
79755;SDS011;69239;50.678;12.280;2023-06-22T11:01:30;6.22;;;5.63;;
79755;SDS011;69239;50.678;12.280;2023-06-22T11:03:56;6.82;;;5.30;;
79755;SDS011;69239;50.678;12.280;2023-06-22T11:06:22;8.00;;;5.72;;
79755;SDS011;69239;50.678;12.280;2023-06-22T11:08:47;7.72;;;5.35;;
79755;SDS011;69239;50.678;12.280;2023-06-22T11:11:13;5.97;;;5.22;;
79755;SDS011;69239;50.678;12.280;2023-06-22T11:13:38;8.32;;;5.22;;
79755;SDS011;69239;50.678;12.280;2023-06-22T11:16:04;24.23;;;6.90;;
79755;SDS011;69239;50.678;12.280;2023-06-22T11:18:30;104.18;;;15.52;;
79755;SDS011;69239;50.678;12.280;2023-06-22T11:20:59;97.63;;;13.20;;
79755;SDS011;69239;50.678;12.280;2023-06-22T11:23:24;15.95;;;6.32;;
79755;SDS011;69239;50.678;12.280;2023-06-22T11:25:51;32.47;;;7.47;;
79755;SDS011;69239;50.678;12.280;2023-06-22T11:28:16;8.50;;;5.80;;
79755;SDS011;69239;50.678;12.280;2023-06-22T11:30:41;15.05;;;5.90;;
79755;SDS011;69239;50.678;12.280;2023-06-22T11:33:07;6.32;;;5.72;;
79755;SDS011;69239;50.678;12.280;2023-06-22T11:35:33;6.53;;;5.28;;
79755;SDS011;69239;50.678;12.280;2023-06-22T11:37:58;7.07;;;5.43;;
79755;SDS011;69239;50.678;12.280;2023-06-22T11:40:23;8.00;;;5.75;;
79755;SDS011;69239;50.678;12.280;2023-06-22T11:42:49;46.13;;;7.97;;
79755;SDS011;69239;50.678;12.280;2023-06-22T11:45:14;6.90;;;5.22;;
79755;SDS011;69239;50.678;12.280;2023-06-22T11:47:40;6.68;;;5.70;;
79755;SDS011;69239;50.678;12.280;2023-06-22T11:50:05;5.80;;;5.20;;
79755;SDS011;69239;50.678;12.280;2023-06-22T11:52:32;6.80;;;5.47;;
79755;SDS011;69239;50.678;12.280;2023-06-22T11:54:58;7.05;;;5.50;;
79755;SDS011;69239;50.678;12.280;2023-06-22T11:57:24;6.65;;;5.68;;
79755;SDS011;69239;50.678;12.280;2023-06-22T11:59:49;8.75;;;5.50;;
79755;SDS011;69239;50.678;12.280;2023-06-22T12:02:15;8.93;;;6.45;;
79755;SDS011;69239;50.678;12.280;2023-06-22T12:04:40;7.10;;;4.88;;
79755;SDS011;69239;50.678;12.280;2023-06-22T12:07:06;6.78;;;6.07;;
79755;SDS011;69239;50.678;12.280;2023-06-22T12:09:31;14.48;;;5.72;;
79755;SDS011;69239;50.678;12.280;2023-06-22T12:11:58;7.05;;;5.70;;
79755;SDS011;69239;50.678;12.280;2023-06-22T12:14:23;6.63;;;5.65;;
79755;SDS011;69239;50.678;12.280;2023-06-22T12:16:48;10.15;;;6.25;;
79755;SDS011;69239;50.678;12.280;2023-06-22T12:19:14;16.33;;;6.82;;
79755;SDS011;69239;50.678;12.280;2023-06-22T12:21:39;9.32;;;5.80;;
79755;SDS011;69239;50.678;12.280;2023-06-22T12:24:05;6.63;;;5.13;;
79755;SDS011;69239;50.678;12.280;2023-06-22T12:26:31;9.52;;;6.28;;
79755;SDS011;69239;50.678;12.280;2023-06-22T12:28:56;6.05;;;5.18;;
79755;SDS011;69239;50.678;12.280;2023-06-22T12:31:22;6.05;;;5.07;;
79755;SDS011;69239;50.678;12.280;2023-06-22T12:33:47;8.45;;;5.28;;
79755;SDS011;69239;50.678;12.280;2023-06-22T12:36:13;5.82;;;5.18;;
79755;SDS011;69239;50.678;12.280;2023-06-22T12:38:38;5.70;;;4.88;;
79755;SDS011;69239;50.678;12.280;2023-06-22T12:41:04;7.57;;;5.75;;
79755;SDS011;69239;50.678;12.280;2023-06-22T12:43:29;5.35;;;4.75;;
79755;SDS011;69239;50.678;12.280;2023-06-22T12:45:54;7.78;;;5.30;;
79755;SDS011;69239;50.678;12.280;2023-06-22T12:48:20;7.57;;;5.53;;
79755;SDS011;69239;50.678;12.280;2023-06-22T12:50:46;7.30;;;5.15;;
79755;SDS011;69239;50.678;12.280;2023-06-22T12:53:12;6.93;;;5.68;;
79755;SDS011;69239;50.678;12.280;2023-06-22T12:55:38;7.03;;;5.82;;
79755;SDS011;69239;50.678;12.280;2023-06-22T12:58:03;7.07;;;5.18;;
79755;SDS011;69239;50.678;12.280;2023-06-22T13:00:28;6.10;;;5.30;;
79755;SDS011;69239;50.678;12.280;2023-06-22T13:02:54;7.30;;;5.32;;
79755;SDS011;69239;50.678;12.280;2023-06-22T13:05:19;7.95;;;5.70;;
79755;SDS011;69239;50.678;12.280;2023-06-22T13:07:45;6.88;;;5.60;;
79755;SDS011;69239;50.678;12.280;2023-06-22T13:10:10;7.95;;;5.22;;
79755;SDS011;69239;50.678;12.280;2023-06-22T13:12:36;6.75;;;5.30;;
79755;SDS011;69239;50.678;12.280;2023-06-22T13:15:01;9.13;;;6.15;;
79755;SDS011;69239;50.678;12.280;2023-06-22T13:17:28;5.80;;;5.20;;
79755;SDS011;69239;50.678;12.280;2023-06-22T13:19:53;7.57;;;6.07;;
79755;SDS011;69239;50.678;12.280;2023-06-22T13:22:52;7.75;;;5.72;;
79755;SDS011;69239;50.678;12.280;2023-06-22T13:25:10;6.07;;;5.45;;
79755;SDS011;69239;50.678;12.280;2023-06-22T13:27:37;6.57;;;5.72;;
79755;SDS011;69239;50.678;12.280;2023-06-22T13:30:06;8.88;;;5.63;;
79755;SDS011;69239;50.678;12.280;2023-06-22T13:32:31;10.32;;;6.53;;
79755;SDS011;69239;50.678;12.280;2023-06-22T13:34:57;7.18;;;6.45;;
79755;SDS011;69239;50.678;12.280;2023-06-22T13:37:22;7.35;;;6.13;;
79755;SDS011;69239;50.678;12.280;2023-06-22T13:39:47;7.20;;;5.85;;
79755;SDS011;69239;50.678;12.280;2023-06-22T13:42:13;8.38;;;6.00;;
79755;SDS011;69239;50.678;12.280;2023-06-22T13:44:38;7.50;;;6.25;;
79755;SDS011;69239;50.678;12.280;2023-06-22T13:47:04;8.40;;;6.05;;
79755;SDS011;69239;50.678;12.280;2023-06-22T13:49:30;10.60;;;6.43;;
79755;SDS011;69239;50.678;12.280;2023-06-22T13:51:55;9.63;;;6.18;;
79755;SDS011;69239;50.678;12.280;2023-06-22T13:54:20;7.28;;;6.55;;
79755;SDS011;69239;50.678;12.280;2023-06-22T13:56:46;9.45;;;6.22;;
79755;SDS011;69239;50.678;12.280;2023-06-22T13:59:11;6.82;;;6.13;;
79755;SDS011;69239;50.678;12.280;2023-06-22T14:01:37;9.30;;;6.28;;
79755;SDS011;69239;50.678;12.280;2023-06-22T14:04:04;7.18;;;6.32;;
79755;SDS011;69239;50.678;12.280;2023-06-22T14:06:30;9.82;;;6.38;;
79755;SDS011;69239;50.678;12.280;2023-06-22T14:08:55;8.02;;;5.93;;
79755;SDS011;69239;50.678;12.280;2023-06-22T14:11:21;8.25;;;6.55;;
79755;SDS011;69239;50.678;12.280;2023-06-22T14:13:46;38.85;;;7.35;;
79755;SDS011;69239;50.678;12.280;2023-06-22T14:16:12;10.68;;;5.95;;
79755;SDS011;69239;50.678;12.280;2023-06-22T14:18:37;8.52;;;6.38;;
79755;SDS011;69239;50.678;12.280;2023-06-22T14:21:02;6.80;;;5.95;;
79755;SDS011;69239;50.678;12.280;2023-06-22T14:23:28;9.48;;;6.55;;
79755;SDS011;69239;50.678;12.280;2023-06-22T14:25:53;10.05;;;6.72;;
79755;SDS011;69239;50.678;12.280;2023-06-22T14:28:19;8.95;;;6.35;;
79755;SDS011;69239;50.678;12.280;2023-06-22T14:30:44;7.03;;;6.32;;
79755;SDS011;69239;50.678;12.280;2023-06-22T14:33:10;8.25;;;6.07;;
79755;SDS011;69239;50.678;12.280;2023-06-22T14:35:37;7.50;;;5.80;;
79755;SDS011;69239;50.678;12.280;2023-06-22T14:38:02;8.25;;;6.40;;
79755;SDS011;69239;50.678;12.280;2023-06-22T14:40:27;7.93;;;5.70;;
79755;SDS011;69239;50.678;12.280;2023-06-22T14:42:53;10.27;;;6.35;;
79755;SDS011;69239;50.678;12.280;2023-06-22T14:45:18;12.93;;;6.57;;
79755;SDS011;69239;50.678;12.280;2023-06-22T14:47:44;10.93;;;6.55;;
79755;SDS011;69239;50.678;12.280;2023-06-22T14:50:09;7.82;;;6.03;;
79755;SDS011;69239;50.678;12.280;2023-06-22T14:52:34;9.02;;;6.35;;
79755;SDS011;69239;50.678;12.280;2023-06-22T14:55:00;11.35;;;6.68;;
79755;SDS011;69239;50.678;12.280;2023-06-22T14:57:25;9.50;;;6.35;;
79755;SDS011;69239;50.678;12.280;2023-06-22T14:59:50;8.07;;;5.93;;
79755;SDS011;69239;50.678;12.280;2023-06-22T15:02:16;8.68;;;6.63;;
79755;SDS011;69239;50.678;12.280;2023-06-22T15:04:41;8.65;;;6.40;;
79755;SDS011;69239;50.678;12.280;2023-06-22T15:07:07;10.07;;;6.88;;
79755;SDS011;69239;50.678;12.280;2023-06-22T15:09:32;7.28;;;5.75;;
79755;SDS011;69239;50.678;12.280;2023-06-22T15:11:58;9.00;;;6.07;;
79755;SDS011;69239;50.678;12.280;2023-06-22T15:14:26;9.13;;;6.75;;
79755;SDS011;69239;50.678;12.280;2023-06-22T15:16:51;9.13;;;6.78;;
79755;SDS011;69239;50.678;12.280;2023-06-22T15:19:17;7.32;;;6.00;;
79755;SDS011;69239;50.678;12.280;2023-06-22T15:21:43;9.60;;;6.30;;
79755;SDS011;69239;50.678;12.280;2023-06-22T15:24:08;9.82;;;6.30;;
79755;SDS011;69239;50.678;12.280;2023-06-22T15:26:33;10.45;;;5.43;;
79755;SDS011;69239;50.678;12.280;2023-06-22T15:28:59;9.80;;;5.90;;
79755;SDS011;69239;50.678;12.280;2023-06-22T15:31:25;7.68;;;6.72;;
79755;SDS011;69239;50.678;12.280;2023-06-22T15:33:51;10.00;;;6.72;;
79755;SDS011;69239;50.678;12.280;2023-06-22T15:36:17;7.97;;;5.93;;
79755;SDS011;69239;50.678;12.280;2023-06-22T15:38:42;8.93;;;5.88;;
79755;SDS011;69239;50.678;12.280;2023-06-22T15:41:08;9.90;;;6.22;;
79755;SDS011;69239;50.678;12.280;2023-06-22T15:43:33;9.35;;;6.13;;
79755;SDS011;69239;50.678;12.280;2023-06-22T15:45:58;7.75;;;6.45;;
79755;SDS011;69239;50.678;12.280;2023-06-22T15:48:24;7.75;;;6.35;;
79755;SDS011;69239;50.678;12.280;2023-06-22T15:50:49;10.55;;;6.55;;
79755;SDS011;69239;50.678;12.280;2023-06-22T15:53:15;8.52;;;5.63;;
79755;SDS011;69239;50.678;12.280;2023-06-22T15:55:40;8.50;;;6.05;;
79755;SDS011;69239;50.678;12.280;2023-06-22T15:58:06;11.07;;;6.13;;
79755;SDS011;69239;50.678;12.280;2023-06-22T16:00:33;10.43;;;6.25;;
79755;SDS011;69239;50.678;12.280;2023-06-22T16:02:59;8.32;;;6.53;;
79755;SDS011;69239;50.678;12.280;2023-06-22T16:05:24;8.57;;;6.18;;
79755;SDS011;69239;50.678;12.280;2023-06-22T16:07:49;8.68;;;5.95;;
79755;SDS011;69239;50.678;12.280;2023-06-22T16:10:15;10.85;;;6.30;;
79755;SDS011;69239;50.678;12.280;2023-06-22T16:12:42;12.23;;;6.50;;
79755;SDS011;69239;50.678;12.280;2023-06-22T16:15:09;9.73;;;6.60;;
79755;SDS011;69239;50.678;12.280;2023-06-22T16:17:34;9.50;;;6.22;;
79755;SDS011;69239;50.678;12.280;2023-06-22T16:20:03;9.38;;;6.13;;
79755;SDS011;69239;50.678;12.280;2023-06-22T16:22:32;10.60;;;5.88;;
79755;SDS011;69239;50.678;12.280;2023-06-22T16:24:58;11.43;;;5.97;;
79755;SDS011;69239;50.678;12.280;2023-06-22T16:27:23;8.63;;;6.13;;
79755;SDS011;69239;50.678;12.280;2023-06-22T16:29:54;10.10;;;6.65;;
79755;SDS011;69239;50.678;12.280;2023-06-22T16:32:19;11.23;;;6.93;;
79755;SDS011;69239;50.678;12.280;2023-06-22T16:34:45;9.63;;;6.20;;
79755;SDS011;69239;50.678;12.280;2023-06-22T16:37:13;9.85;;;6.47;;
79755;SDS011;69239;50.678;12.280;2023-06-22T16:39:39;10.00;;;6.53;;
79755;SDS011;69239;50.678;12.280;2023-06-22T16:42:04;11.35;;;6.60;;
79755;SDS011;69239;50.678;12.280;2023-06-22T16:44:29;9.38;;;5.97;;
79755;SDS011;69239;50.678;12.280;2023-06-22T16:46:55;9.32;;;6.22;;
79755;SDS011;69239;50.678;12.280;2023-06-22T16:49:22;10.93;;;6.10;;
79755;SDS011;69239;50.678;12.280;2023-06-22T16:51:47;10.23;;;6.80;;
79755;SDS011;69239;50.678;12.280;2023-06-22T16:54:12;8.88;;;6.05;;
79755;SDS011;69239;50.678;12.280;2023-06-22T16:56:38;8.13;;;6.00;;
79755;SDS011;69239;50.678;12.280;2023-06-22T16:59:04;7.55;;;5.95;;
79755;SDS011;69239;50.678;12.280;2023-06-22T17:01:30;9.63;;;6.40;;
79755;SDS011;69239;50.678;12.280;2023-06-22T17:04:06;8.60;;;6.05;;
79755;SDS011;69239;50.678;12.280;2023-06-22T17:06:32;9.60;;;6.28;;
79755;SDS011;69239;50.678;12.280;2023-06-22T17:08:59;7.65;;;6.45;;
79755;SDS011;69239;50.678;12.280;2023-06-22T17:11:26;7.88;;;5.82;;
79755;SDS011;69239;50.678;12.280;2023-06-22T17:13:53;6.72;;;6.05;;
79755;SDS011;69239;50.678;12.280;2023-06-22T17:16:19;10.25;;;6.15;;
79755;SDS011;69239;50.678;12.280;2023-06-22T17:18:45;8.18;;;5.93;;
79755;SDS011;69239;50.678;12.280;2023-06-22T17:21:11;8.82;;;6.05;;
79755;SDS011;69239;50.678;12.280;2023-06-22T17:23:37;7.88;;;5.85;;
79755;SDS011;69239;50.678;12.280;2023-06-22T17:26:03;10.80;;;5.93;;
79755;SDS011;69239;50.678;12.280;2023-06-22T17:28:49;8.45;;;6.10;;
79755;SDS011;69239;50.678;12.280;2023-06-22T17:31:16;7.25;;;6.18;;
79755;SDS011;69239;50.678;12.280;2023-06-22T17:33:41;8.85;;;6.15;;
79755;SDS011;69239;50.678;12.280;2023-06-22T17:36:13;10.52;;;6.30;;
79755;SDS011;69239;50.678;12.280;2023-06-22T17:38:40;9.32;;;6.15;;
79755;SDS011;69239;50.678;12.280;2023-06-22T17:41:05;10.07;;;6.70;;
79755;SDS011;69239;50.678;12.280;2023-06-22T17:43:31;11.63;;;6.22;;
79755;SDS011;69239;50.678;12.280;2023-06-22T17:45:58;8.93;;;6.20;;
79755;SDS011;69239;50.678;12.280;2023-06-22T17:48:24;10.18;;;6.47;;
79755;SDS011;69239;50.678;12.280;2023-06-22T17:50:50;10.63;;;7.10;;
79755;SDS011;69239;50.678;12.280;2023-06-22T17:53:17;12.18;;;6.82;;
79755;SDS011;69239;50.678;12.280;2023-06-22T17:55:43;8.95;;;6.53;;
79755;SDS011;69239;50.678;12.280;2023-06-22T17:58:08;9.65;;;6.45;;
79755;SDS011;69239;50.678;12.280;2023-06-22T18:00:35;9.45;;;6.60;;
79755;SDS011;69239;50.678;12.280;2023-06-22T18:03:01;12.50;;;7.32;;
79755;SDS011;69239;50.678;12.280;2023-06-22T18:05:30;9.25;;;6.53;;
79755;SDS011;69239;50.678;12.280;2023-06-22T18:07:59;9.82;;;6.57;;
79755;SDS011;69239;50.678;12.280;2023-06-22T18:10:28;8.75;;;6.57;;
79755;SDS011;69239;50.678;12.280;2023-06-22T18:12:55;8.13;;;6.28;;
79755;SDS011;69239;50.678;12.280;2023-06-22T18:15:23;13.57;;;7.07;;
79755;SDS011;69239;50.678;12.280;2023-06-22T18:17:53;8.23;;;6.00;;
79755;SDS011;69239;50.678;12.280;2023-06-22T18:20:19;9.07;;;6.10;;
79755;SDS011;69239;50.678;12.280;2023-06-22T18:22:45;10.23;;;6.40;;
79755;SDS011;69239;50.678;12.280;2023-06-22T18:25:11;9.23;;;6.38;;
79755;SDS011;69239;50.678;12.280;2023-06-22T18:27:37;9.75;;;6.30;;
79755;SDS011;69239;50.678;12.280;2023-06-22T18:30:03;8.35;;;6.32;;
79755;SDS011;69239;50.678;12.280;2023-06-22T18:32:30;7.22;;;6.10;;
79755;SDS011;69239;50.678;12.280;2023-06-22T18:34:55;8.32;;;6.35;;
79755;SDS011;69239;50.678;12.280;2023-06-22T18:37:21;9.07;;;5.75;;
79755;SDS011;69239;50.678;12.280;2023-06-22T18:39:49;10.77;;;6.25;;
79755;SDS011;69239;50.678;12.280;2023-06-22T18:42:18;10.13;;;6.65;;
79755;SDS011;69239;50.678;12.280;2023-06-22T18:44:44;7.22;;;5.93;;
79755;SDS011;69239;50.678;12.280;2023-06-22T18:47:09;9.80;;;6.47;;
79755;SDS011;69239;50.678;12.280;2023-06-22T18:54:34;9.57;;;6.63;;
79755;SDS011;69239;50.678;12.280;2023-06-22T18:57:01;10.45;;;6.82;;
79755;SDS011;69239;50.678;12.280;2023-06-22T19:05:15;10.27;;;5.88;;
79755;SDS011;69239;50.678;12.280;2023-06-22T19:10:25;10.50;;;6.47;;
79755;SDS011;69239;50.678;12.280;2023-06-22T19:12:55;8.85;;;6.03;;
79755;SDS011;69239;50.678;12.280;2023-06-22T19:15:21;7.53;;;6.05;;
79755;SDS011;69239;50.678;12.280;2023-06-22T19:18:04;8.82;;;6.68;;
79755;SDS011;69239;50.678;12.280;2023-06-22T19:20:41;11.60;;;6.60;;
79755;SDS011;69239;50.678;12.280;2023-06-22T19:23:22;11.25;;;6.10;;
79755;SDS011;69239;50.678;12.280;2023-06-22T19:25:49;9.52;;;6.40;;
79755;SDS011;69239;50.678;12.280;2023-06-22T19:28:15;9.10;;;6.20;;
79755;SDS011;69239;50.678;12.280;2023-06-22T19:30:41;9.23;;;6.25;;
79755;SDS011;69239;50.678;12.280;2023-06-22T19:33:06;9.70;;;6.53;;
79755;SDS011;69239;50.678;12.280;2023-06-22T19:35:33;8.77;;;6.00;;
79755;SDS011;69239;50.678;12.280;2023-06-22T19:37:58;9.15;;;6.05;;
79755;SDS011;69239;50.678;12.280;2023-06-22T19:40:24;9.75;;;6.35;;
79755;SDS011;69239;50.678;12.280;2023-06-22T19:42:52;7.88;;;5.82;;
79755;SDS011;69239;50.678;12.280;2023-06-22T19:45:21;9.18;;;6.10;;
79755;SDS011;69239;50.678;12.280;2023-06-22T19:47:47;8.23;;;5.88;;
79755;SDS011;69239;50.678;12.280;2023-06-22T19:50:13;9.60;;;6.13;;
79755;SDS011;69239;50.678;12.280;2023-06-22T19:52:42;13.05;;;6.65;;
79755;SDS011;69239;50.678;12.280;2023-06-22T19:55:11;11.40;;;5.30;;
79755;SDS011;69239;50.678;12.280;2023-06-22T19:57:40;14.18;;;5.30;;
79755;SDS011;69239;50.678;12.280;2023-06-22T20:00:11;7.82;;;4.53;;
79755;SDS011;69239;50.678;12.280;2023-06-22T20:02:44;13.38;;;4.93;;
79755;SDS011;69239;50.678;12.280;2023-06-22T20:05:14;8.07;;;4.47;;